createdAt,value
2019-03-27T00:01:39.739Z,62.00
2019-03-27T00:04:08.136Z,62.35
2019-03-27T00:06:36.569Z,62.45
2019-03-27T00:09:06.410Z,63.16
2019-03-27T00:11:34.813Z,62.50
2019-03-27T00:14:03.229Z,61.93
2019-03-27T00:16:31.619Z,61.80
2019-03-27T00:19:00.022Z,62.50
2019-03-27T00:21:28.430Z,62.14
2019-03-27T00:23:56.826Z,62.76
2019-03-27T00:26:25.223Z,63.15
2019-03-27T00:28:53.648Z,63.08
2019-03-27T00:31:22.041Z,62.78
2019-03-27T00:33:50.436Z,62.47
2019-03-27T00:36:18.856Z,62.16
2019-03-27T00:38:47.259Z,62.43
2019-03-27T00:41:15.660Z,63.37
2019-03-27T00:43:44.081Z,63.10
2019-03-27T00:46:12.466Z,62.97
2019-03-27T00:48:40.858Z,63.75
2019-03-27T00:51:09.285Z,63.93
2019-03-27T00:53:37.687Z,64.43
2019-03-27T00:56:06.163Z,63.13
2019-03-27T00:58:34.576Z,62.90
2019-03-27T01:01:08.399Z,62.96
2019-03-27T01:03:36.819Z,63.66
2019-03-27T01:06:06.347Z,64.95
2019-03-27T01:08:34.809Z,63.92
2019-03-27T01:11:03.224Z,64.22
2019-03-27T01:13:31.691Z,63.89
2019-03-27T01:16:00.160Z,63.75
2019-03-27T01:18:28.573Z,63.51
2019-03-27T01:20:56.971Z,64.52
2019-03-27T01:23:25.442Z,65.51
2019-03-27T01:25:53.869Z,66.71
2019-03-27T01:28:25.067Z,67.24
2019-03-27T01:30:53.461Z,67.14
2019-03-27T01:33:21.905Z,67.95
2019-03-27T01:35:50.453Z,69.20
2019-03-27T01:38:19.611Z,69.04
2019-03-27T01:40:48.022Z,69.20
2019-03-27T01:43:16.424Z,67.83
2019-03-27T01:45:52.933Z,66.82
2019-03-27T01:48:14.976Z,66.09
2019-03-27T01:50:43.382Z,65.88
2019-03-27T01:53:11.776Z,66.04
2019-03-27T01:55:40.184Z,65.71
2019-03-27T01:58:08.582Z,65.83
2019-03-27T02:00:37.429Z,66.14
2019-03-27T02:03:09.013Z,66.02
2019-03-27T02:05:37.429Z,66.46
2019-03-27T02:08:06.091Z,66.14
2019-03-27T02:10:34.507Z,65.98
2019-03-27T02:13:02.906Z,65.65
2019-03-27T02:15:32.899Z,65.80
2019-03-27T02:18:02.120Z,66.31
2019-03-27T02:20:30.814Z,66.67
2019-03-27T02:23:00.180Z,67.31
2019-03-27T02:25:28.859Z,67.32
2019-03-27T02:27:57.269Z,66.89
2019-03-27T02:30:25.777Z,66.80
2019-03-27T02:32:54.407Z,68.02
2019-03-27T02:35:22.817Z,67.71
2019-03-27T02:37:51.208Z,67.51
2019-03-27T02:40:19.621Z,68.94
2019-03-27T02:42:48.018Z,67.79
2019-03-27T02:45:16.447Z,67.57
2019-03-27T02:47:44.830Z,66.64
2019-03-27T02:50:13.311Z,66.66
2019-03-27T02:52:41.739Z,66.39
2019-03-27T02:55:10.473Z,66.33
2019-03-27T02:57:38.860Z,67.12
2019-03-27T03:00:10.290Z,67.36
2019-03-27T03:02:38.689Z,68.54
2019-03-27T03:05:08.739Z,68.07
2019-03-27T03:07:37.395Z,67.53
2019-03-27T03:10:07.890Z,67.79
2019-03-27T03:12:36.296Z,68.87
2019-03-27T03:15:05.620Z,68.54
2019-03-27T03:17:34.100Z,68.69
2019-03-27T03:20:02.500Z,69.22
2019-03-27T03:22:30.913Z,68.46
2019-03-27T03:24:59.308Z,68.92
2019-03-27T03:27:27.716Z,69.24
2019-03-27T03:29:56.120Z,69.35
2019-03-27T03:32:24.536Z,69.53
2019-03-27T03:34:52.928Z,69.41
2019-03-27T03:37:21.341Z,69.42
2019-03-27T03:39:49.737Z,69.86
2019-03-27T03:42:18.147Z,70.15
2019-03-27T03:44:46.552Z,69.82
2019-03-27T03:47:14.953Z,69.87
2019-03-27T03:49:43.352Z,69.59
2019-03-27T03:52:11.851Z,70.03
2019-03-27T03:54:40.412Z,69.95
2019-03-27T03:57:09.825Z,69.85
2019-03-27T03:59:40.034Z,69.76
2019-03-27T04:02:08.725Z,70.30
2019-03-27T04:04:37.760Z,70.84
2019-03-27T04:07:06.192Z,70.65
2019-03-27T04:09:34.590Z,69.94
2019-03-27T04:12:02.998Z,69.36
2019-03-27T04:14:31.405Z,68.89
2019-03-27T04:17:16.278Z,69.73
2019-03-27T04:19:29.938Z,69.28
2019-03-27T04:21:58.361Z,69.11
2019-03-27T04:24:26.778Z,69.13
2019-03-27T04:26:55.178Z,68.91
2019-03-27T04:29:23.578Z,68.76
2019-03-27T04:31:51.975Z,68.58
2019-03-27T04:34:20.404Z,68.87
2019-03-27T04:36:48.803Z,68.95
2019-03-27T04:39:17.205Z,69.98
2019-03-27T04:41:45.602Z,70.37
2019-03-27T04:44:14.012Z,69.70
2019-03-27T04:46:42.411Z,69.78
2019-03-27T04:49:10.895Z,69.89
2019-03-27T04:51:39.290Z,70.03
2019-03-27T04:54:07.702Z,70.33
2019-03-27T04:56:36.097Z,70.63
2019-03-27T04:59:04.598Z,70.68
2019-03-27T05:01:32.987Z,71.41
2019-03-27T05:04:01.774Z,71.26
2019-03-27T05:06:30.171Z,70.48
2019-03-27T05:08:58.585Z,69.84
2019-03-27T05:11:27.224Z,70.06
2019-03-27T05:13:55.636Z,70.67
2019-03-27T05:16:24.031Z,71.26
2019-03-27T05:18:52.447Z,70.62
2019-03-27T05:21:20.840Z,69.14
2019-03-27T05:23:51.298Z,69.53
2019-03-27T05:26:19.693Z,69.37
2019-03-27T05:28:48.107Z,69.85
2019-03-27T05:31:16.503Z,70.94
2019-03-27T05:33:45.137Z,70.78
2019-03-27T05:36:13.540Z,70.37
2019-03-27T05:38:41.948Z,69.86
2019-03-27T05:41:10.345Z,69.83
2019-03-27T05:43:39.075Z,70.46
2019-03-27T05:46:07.504Z,71.07
2019-03-27T05:48:35.890Z,71.57
2019-03-27T05:51:04.296Z,72.07
2019-03-27T05:53:32.701Z,72.21
2019-03-27T05:56:01.378Z,72.57
2019-03-27T05:58:29.785Z,71.91
2019-03-27T06:00:58.198Z,71.61
2019-03-27T06:03:26.667Z,71.20
2019-03-27T06:05:55.074Z,70.73
2019-03-27T06:08:23.478Z,71.66
2019-03-27T06:10:51.886Z,72.42
2019-03-27T06:13:20.287Z,72.19
2019-03-27T06:15:48.691Z,71.74
2019-03-27T06:18:17.084Z,72.68
2019-03-27T06:20:45.499Z,73.03
2019-03-27T06:23:13.890Z,72.80
2019-03-27T06:25:42.321Z,72.16
2019-03-27T06:28:10.718Z,72.14
2019-03-27T06:30:39.124Z,72.14
2019-03-27T06:33:07.547Z,73.00
2019-03-27T06:35:35.957Z,71.79
2019-03-27T06:38:04.367Z,71.85
2019-03-27T06:40:32.796Z,72.11
2019-03-27T06:43:01.200Z,71.65
2019-03-27T06:45:29.867Z,72.41
2019-03-27T06:47:58.281Z,70.55
2019-03-27T06:50:26.708Z,70.27
2019-03-27T06:52:55.188Z,70.23
2019-03-27T06:55:23.884Z,69.61
2019-03-27T06:57:52.335Z,69.87
2019-03-27T07:00:23.742Z,67.52
2019-03-27T07:02:52.163Z,66.01
2019-03-27T07:05:20.567Z,66.58
2019-03-27T07:07:48.962Z,65.67
2019-03-27T07:10:18.053Z,63.45
2019-03-27T07:12:46.458Z,63.59
2019-03-27T07:15:14.867Z,63.72
2019-03-27T07:17:43.305Z,63.14
2019-03-27T07:20:11.950Z,61.77
2019-03-27T07:22:40.343Z,59.62
2019-03-27T07:25:09.004Z,58.17
2019-03-27T07:27:37.407Z,56.50
2019-03-27T07:30:07.057Z,55.25
2019-03-27T07:32:35.479Z,55.14
2019-03-27T07:35:04.550Z,55.33
2019-03-27T07:37:32.952Z,54.86
2019-03-27T07:40:01.392Z,53.34
2019-03-27T07:42:30.223Z,54.28
2019-03-27T07:44:58.603Z,53.53
2019-03-27T07:47:27.174Z,52.49
2019-03-27T07:49:55.590Z,51.07
2019-03-27T07:52:23.991Z,51.40
2019-03-27T07:54:52.531Z,52.31
2019-03-27T07:57:20.940Z,50.97
2019-03-27T07:59:49.346Z,51.41
2019-03-27T08:02:18.028Z,51.22
2019-03-27T08:04:46.431Z,50.49
2019-03-27T08:07:26.299Z,50.11
2019-03-27T08:09:45.053Z,48.64
2019-03-27T08:12:13.476Z,48.04
2019-03-27T08:14:41.881Z,47.83
2019-03-27T08:17:10.278Z,49.00
2019-03-27T08:19:38.706Z,48.74
2019-03-27T08:22:07.104Z,48.20
2019-03-27T08:24:35.522Z,49.80
2019-03-27T08:27:03.949Z,49.83
2019-03-27T08:29:32.352Z,50.13
2019-03-27T08:32:00.758Z,50.07
2019-03-27T08:34:29.194Z,50.92
2019-03-27T08:36:57.600Z,50.65
2019-03-27T08:39:26.000Z,50.50
2019-03-27T08:41:54.436Z,49.51
2019-03-27T08:44:23.754Z,48.36
2019-03-27T08:46:52.157Z,47.28
2019-03-27T08:49:22.437Z,47.47
2019-03-27T08:51:51.071Z,47.51
2019-03-27T08:54:19.479Z,47.62
2019-03-27T08:56:47.910Z,49.02
2019-03-27T08:59:16.311Z,49.06
2019-03-27T09:01:44.714Z,51.34
2019-03-27T09:04:13.149Z,50.29
2019-03-27T09:06:41.559Z,48.49
2019-03-27T09:09:10.033Z,50.05
2019-03-27T09:11:38.462Z,49.34
2019-03-27T09:14:06.868Z,51.30
2019-03-27T09:16:35.270Z,51.56
2019-03-27T09:19:04.106Z,49.93
2019-03-27T09:21:32.502Z,49.95
2019-03-27T09:24:00.903Z,50.62
2019-03-27T09:26:29.339Z,51.24
2019-03-27T09:28:57.795Z,51.06
2019-03-27T09:31:26.156Z,49.94
2019-03-27T09:33:54.579Z,49.88
2019-03-27T09:36:22.987Z,48.85
2019-03-27T09:38:51.400Z,48.20
2019-03-27T09:41:21.423Z,47.42
2019-03-27T09:43:50.013Z,49.16
2019-03-27T09:46:18.429Z,50.63
2019-03-27T09:48:46.862Z,49.82
2019-03-27T09:51:15.265Z,50.55
2019-03-27T09:53:43.666Z,50.40
2019-03-27T09:56:18.956Z,48.96
2019-03-27T09:58:42.236Z,48.61
2019-03-27T10:01:10.718Z,47.99
2019-03-27T10:03:39.149Z,49.46
2019-03-27T10:06:07.730Z,49.97
2019-03-27T10:08:36.429Z,51.19
2019-03-27T10:11:05.106Z,50.15
2019-03-27T10:13:33.505Z,50.06
2019-03-27T10:16:01.985Z,50.03
2019-03-27T10:18:31.168Z,49.93
2019-03-27T10:20:59.590Z,49.50
2019-03-27T10:23:27.993Z,49.46
2019-03-27T10:25:56.398Z,50.42
2019-03-27T10:28:24.819Z,48.87
2019-03-27T10:30:53.573Z,47.09
2019-03-27T10:33:22.170Z,46.75
2019-03-27T10:35:50.573Z,46.97
2019-03-27T10:38:18.980Z,46.21
2019-03-27T10:40:47.410Z,47.93
2019-03-27T10:43:15.812Z,46.22
2019-03-27T10:45:44.218Z,47.12
2019-03-27T10:48:12.646Z,45.74
2019-03-27T10:50:41.056Z,47.05
2019-03-27T10:53:09.459Z,47.26
2019-03-27T10:55:37.899Z,46.98
2019-03-27T10:58:06.297Z,46.17
2019-03-27T11:00:34.707Z,44.70
2019-03-27T11:03:03.124Z,44.11
2019-03-27T11:05:31.803Z,44.67
2019-03-27T11:08:00.206Z,45.37
2019-03-27T11:10:28.629Z,44.31
2019-03-27T11:12:57.262Z,44.79
2019-03-27T11:15:25.620Z,44.63
2019-03-27T11:17:54.052Z,44.29
2019-03-27T11:20:30.816Z,42.89
2019-03-27T11:22:52.660Z,42.81
2019-03-27T11:25:21.100Z,42.54
2019-03-27T11:27:49.501Z,43.33
2019-03-27T11:30:18.346Z,43.77
2019-03-27T11:32:46.774Z,42.17
2019-03-27T11:35:15.360Z,42.03
2019-03-27T11:37:43.753Z,41.49
2019-03-27T11:40:12.464Z,42.22
2019-03-27T11:42:41.160Z,41.85
2019-03-27T11:45:10.101Z,43.36
2019-03-27T11:47:38.529Z,41.94
2019-03-27T11:50:08.569Z,42.23
2019-03-27T11:52:36.974Z,41.14
2019-03-27T11:55:06.354Z,41.35
2019-03-27T11:57:34.767Z,42.44
2019-03-27T12:00:04.255Z,41.63
2019-03-27T12:02:32.687Z,42.67
2019-03-27T12:05:01.093Z,41.01
2019-03-27T12:07:29.498Z,42.40
2019-03-27T12:09:58.228Z,45.38
2019-03-27T12:12:26.906Z,41.70
2019-03-27T12:14:55.335Z,41.22
2019-03-27T12:17:23.745Z,40.63
2019-03-27T12:19:52.153Z,42.21
2019-03-27T12:22:20.584Z,41.63
2019-03-27T12:24:48.984Z,41.12
2019-03-27T12:27:17.388Z,43.94
2019-03-27T12:29:45.806Z,40.87
2019-03-27T12:32:14.215Z,39.21
2019-03-27T12:34:42.618Z,42.87
2019-03-27T12:37:11.054Z,40.90
2019-03-27T12:39:40.938Z,43.14
2019-03-27T12:42:09.633Z,42.42
2019-03-27T12:44:38.060Z,41.52
2019-03-27T12:47:06.457Z,41.65
2019-03-27T12:49:34.889Z,41.98
2019-03-27T12:52:05.483Z,42.29
2019-03-27T12:54:33.657Z,41.29
2019-03-27T12:57:02.098Z,42.44
2019-03-27T12:59:30.507Z,43.34
2019-03-27T13:01:58.907Z,44.37
2019-03-27T13:04:27.338Z,44.16
2019-03-27T13:06:55.740Z,43.76
2019-03-27T13:09:24.138Z,42.50
2019-03-27T13:11:52.591Z,41.83
2019-03-27T13:14:20.988Z,43.00
2019-03-27T13:16:52.182Z,40.62
2019-03-27T13:19:19.548Z,40.23
2019-03-27T13:21:48.028Z,43.64
2019-03-27T13:24:16.735Z,41.89
2019-03-27T13:26:45.252Z,41.28
2019-03-27T13:29:13.649Z,42.14
2019-03-27T13:31:42.060Z,42.38
2019-03-27T13:34:10.485Z,40.40
2019-03-27T13:36:40.525Z,41.92
2019-03-27T13:39:09.097Z,39.98
2019-03-27T13:41:37.538Z,40.76
2019-03-27T13:44:05.940Z,41.79
2019-03-27T13:46:34.347Z,39.72
2019-03-27T13:49:02.761Z,40.50
2019-03-27T13:51:40.569Z,40.30
2019-03-27T13:54:01.366Z,39.68
2019-03-27T13:56:29.801Z,39.48
2019-03-27T13:58:58.197Z,38.73
2019-03-27T14:01:26.611Z,37.57
2019-03-27T14:03:55.033Z,38.23
2019-03-27T14:06:23.777Z,37.96
2019-03-27T14:08:52.181Z,39.21
2019-03-27T14:11:20.589Z,39.86
2019-03-27T14:13:49.005Z,40.74
2019-03-27T14:16:17.416Z,40.80
2019-03-27T14:18:48.796Z,42.64
2019-03-27T14:21:15.963Z,41.78
2019-03-27T14:23:44.679Z,42.14
2019-03-27T14:26:13.098Z,40.92
2019-03-27T14:28:41.507Z,40.67
2019-03-27T14:31:09.987Z,40.55
2019-03-27T14:33:38.384Z,41.46
2019-03-27T14:36:06.862Z,42.62
2019-03-27T14:38:35.554Z,40.29
2019-03-27T14:41:03.962Z,41.45
2019-03-27T14:43:32.463Z,40.81
2019-03-27T14:46:01.217Z,39.77
2019-03-27T14:48:29.627Z,39.70
2019-03-27T14:50:58.054Z,38.00
2019-03-27T14:53:26.459Z,38.60
2019-03-27T14:55:54.867Z,38.25
2019-03-27T14:58:23.615Z,39.67
2019-03-27T15:00:52.043Z,37.65
2019-03-27T15:03:20.441Z,37.93
2019-03-27T15:05:48.922Z,38.50
2019-03-27T15:08:17.336Z,39.84
2019-03-27T15:10:45.845Z,37.78
2019-03-27T15:13:15.432Z,38.07
2019-03-27T15:15:44.056Z,38.33
2019-03-27T15:18:12.456Z,36.40
2019-03-27T15:20:40.875Z,36.73
2019-03-27T15:23:09.298Z,38.14
2019-03-27T15:25:37.703Z,36.89
2019-03-27T15:28:06.118Z,38.27
2019-03-27T15:30:34.554Z,40.08
2019-03-27T15:33:02.954Z,38.48
2019-03-27T15:35:31.643Z,38.77
2019-03-27T15:38:00.139Z,39.72
2019-03-27T15:40:42.220Z,39.92
2019-03-27T15:43:10.670Z,39.38
2019-03-27T15:45:39.064Z,39.61
2019-03-27T15:48:07.459Z,41.38
2019-03-27T15:50:35.954Z,41.17
2019-03-27T15:53:04.605Z,39.98
2019-03-27T15:55:33.035Z,40.58
2019-03-27T15:58:01.438Z,38.85
2019-03-27T16:00:29.910Z,38.51
2019-03-27T16:02:58.340Z,39.11
2019-03-27T16:05:26.742Z,40.28
2019-03-27T16:07:55.145Z,40.05
2019-03-27T16:10:23.582Z,38.89
2019-03-27T16:12:51.994Z,39.41
2019-03-27T16:15:20.394Z,36.62
2019-03-27T16:17:48.839Z,35.45
2019-03-27T16:20:17.557Z,35.56
2019-03-27T16:22:50.994Z,36.51
2019-03-27T16:25:16.073Z,37.79
2019-03-27T16:27:44.479Z,39.21
2019-03-27T16:30:16.895Z,39.59
2019-03-27T16:32:43.722Z,38.36
2019-03-27T16:35:12.281Z,37.93
2019-03-27T16:37:40.717Z,37.66
2019-03-27T16:40:09.664Z,38.90
2019-03-27T16:42:38.067Z,38.12
2019-03-27T16:45:08.858Z,41.86
2019-03-27T16:47:37.257Z,41.17
2019-03-27T16:50:09.383Z,42.26
2019-03-27T16:52:37.819Z,40.10
2019-03-27T16:55:08.160Z,40.09
2019-03-27T16:57:36.566Z,41.57
2019-03-27T17:00:08.128Z,40.62
2019-03-27T17:02:36.519Z,41.13
2019-03-27T17:05:06.670Z,41.37
2019-03-27T17:07:35.099Z,41.71
2019-03-27T17:10:04.340Z,42.32
2019-03-27T17:12:32.747Z,44.06
2019-03-27T17:15:01.174Z,44.46
2019-03-27T17:17:29.853Z,45.10
2019-03-27T17:19:58.320Z,43.80
2019-03-27T17:22:26.748Z,43.58
2019-03-27T17:24:56.134Z,46.29
2019-03-27T17:27:24.739Z,46.27
2019-03-27T17:29:53.167Z,48.19
2019-03-27T17:32:21.879Z,49.07
2019-03-27T17:34:51.901Z,48.87
2019-03-27T17:37:20.603Z,50.91
2019-03-27T17:39:49.013Z,47.83
2019-03-27T17:42:17.424Z,46.91
2019-03-27T17:44:45.865Z,45.98
2019-03-27T17:47:14.544Z,48.21
2019-03-27T17:49:42.943Z,48.20
2019-03-27T17:52:11.385Z,50.04
2019-03-27T17:54:39.796Z,50.77
2019-03-27T17:57:08.532Z,49.96
2019-03-27T17:59:36.959Z,49.76
2019-03-27T18:02:05.364Z,50.39
2019-03-27T18:04:33.770Z,49.96
2019-03-27T18:07:02.192Z,49.99
2019-03-27T18:09:30.604Z,50.34
2019-03-27T18:11:59.022Z,50.51
2019-03-27T18:14:27.425Z,50.26
2019-03-27T18:16:55.830Z,50.62
2019-03-27T18:19:24.252Z,52.05
2019-03-27T18:22:06.659Z,51.85
2019-03-27T18:24:22.772Z,51.74
2019-03-27T18:26:51.203Z,51.70
2019-03-27T18:29:19.593Z,51.81
2019-03-27T18:31:47.989Z,52.65
2019-03-27T18:34:16.418Z,53.23
2019-03-27T18:36:45.128Z,53.56
2019-03-27T18:39:13.531Z,54.54
2019-03-27T18:41:41.953Z,56.38
2019-03-27T18:44:10.345Z,56.70
2019-03-27T18:46:38.746Z,56.02
2019-03-27T18:49:10.277Z,56.52
2019-03-27T18:51:37.307Z,58.10
2019-03-27T18:54:05.983Z,57.67
2019-03-27T18:56:34.402Z,56.41
2019-03-27T18:59:02.803Z,56.33
2019-03-27T19:01:31.207Z,56.66
2019-03-27T19:03:59.640Z,57.86
2019-03-27T19:06:28.695Z,58.40
2019-03-27T19:08:57.087Z,58.01
2019-03-27T19:11:25.498Z,59.47
2019-03-27T19:13:53.895Z,59.71
2019-03-27T19:16:22.292Z,59.90
2019-03-27T19:18:50.729Z,59.33
2019-03-27T19:21:19.128Z,59.82
2019-03-27T19:23:47.531Z,60.10
2019-03-27T19:26:16.918Z,59.93
2019-03-27T19:28:45.321Z,61.45
2019-03-27T19:31:14.059Z,61.69
2019-03-27T19:33:42.839Z,61.58
2019-03-27T19:36:11.238Z,60.18
2019-03-27T19:38:39.640Z,59.01
2019-03-27T19:41:08.065Z,59.87
2019-03-27T19:43:36.465Z,61.09
2019-03-27T19:46:05.050Z,61.54
2019-03-27T19:48:33.472Z,62.65
2019-03-27T19:51:01.877Z,62.50
2019-03-27T19:53:30.298Z,61.27
2019-03-27T19:55:58.770Z,60.65
2019-03-27T19:58:27.100Z,60.57
2019-03-27T20:00:55.506Z,58.94
2019-03-27T20:03:23.938Z,59.65
2019-03-27T20:05:52.335Z,60.63
2019-03-27T20:08:20.744Z,63.21
2019-03-27T20:10:49.162Z,62.74
2019-03-27T20:13:17.560Z,64.28
2019-03-27T20:15:45.961Z,61.42
2019-03-27T20:18:14.396Z,60.54
2019-03-27T20:20:42.790Z,60.40
2019-03-27T20:23:15.072Z,60.53
2019-03-27T20:25:41.340Z,60.21
2019-03-27T20:28:09.742Z,60.40
2019-03-27T20:30:38.140Z,61.07
2019-03-27T20:33:06.564Z,61.84
2019-03-27T20:35:35.266Z,61.96
2019-03-27T20:38:03.662Z,61.82
2019-03-27T20:40:32.173Z,62.18
2019-03-27T20:43:00.572Z,62.16
2019-03-27T20:45:28.973Z,62.48
2019-03-27T20:47:57.413Z,63.32
2019-03-27T20:50:27.117Z,63.22
2019-03-27T20:52:55.684Z,63.13
2019-03-27T20:55:30.209Z,63.32
2019-03-27T20:57:54.213Z,63.20
2019-03-27T21:00:22.851Z,65.05
2019-03-27T21:02:51.270Z,64.36
2019-03-27T21:05:19.681Z,64.79
2019-03-27T21:07:48.076Z,65.16
2019-03-27T21:10:16.647Z,64.00
2019-03-27T21:12:45.055Z,63.77
2019-03-27T21:15:13.870Z,64.73
2019-03-27T21:17:42.237Z,65.31
2019-03-27T21:20:11.074Z,65.75
2019-03-27T21:22:39.481Z,66.08
2019-03-27T21:25:09.799Z,65.65
2019-03-27T21:27:38.421Z,65.46
2019-03-27T21:30:11.240Z,65.17
2019-03-27T21:32:39.673Z,65.39
2019-03-27T21:35:08.335Z,65.70
2019-03-27T21:37:36.759Z,65.78
2019-03-27T21:40:08.175Z,66.06
2019-03-27T21:42:36.589Z,66.30
2019-03-27T21:45:09.261Z,66.57
2019-03-27T21:47:37.709Z,67.11
2019-03-27T21:50:07.678Z,66.80
2019-03-27T21:52:36.114Z,66.51
2019-03-27T21:55:06.756Z,67.01
2019-03-27T21:57:35.200Z,68.14
2019-03-27T22:00:04.866Z,68.36
2019-03-27T22:02:33.319Z,67.50
2019-03-27T22:05:01.753Z,66.38
2019-03-27T22:07:30.173Z,65.56
2019-03-27T22:09:58.627Z,64.20
2019-03-27T22:12:27.061Z,63.70
2019-03-27T22:14:55.489Z,63.66
2019-03-27T22:17:23.936Z,64.37
2019-03-27T22:19:52.354Z,65.44
2019-03-27T22:22:20.782Z,65.64
2019-03-27T22:24:49.241Z,65.76
2019-03-27T22:27:17.993Z,66.19
2019-03-27T22:29:46.427Z,65.73
2019-03-27T22:32:15.290Z,66.32
2019-03-27T22:34:44.459Z,66.45
2019-03-27T22:37:13.031Z,67.26
2019-03-27T22:39:41.846Z,67.90
2019-03-27T22:42:10.280Z,67.68
2019-03-27T22:44:38.716Z,66.98
2019-03-27T22:47:07.174Z,65.45
2019-03-27T22:49:35.608Z,64.60
2019-03-27T22:52:04.030Z,65.35
2019-03-27T22:54:32.481Z,65.28
2019-03-27T22:57:00.911Z,65.08
2019-03-27T22:59:29.341Z,65.35
2019-03-27T23:01:57.778Z,65.27
2019-03-27T23:04:26.215Z,64.86
2019-03-27T23:06:54.648Z,65.72
2019-03-27T23:09:23.090Z,65.41
2019-03-27T23:11:51.521Z,65.72
2019-03-27T23:14:19.956Z,65.57
2019-03-27T23:16:48.399Z,66.38
2019-03-27T23:19:16.832Z,66.94
2019-03-27T23:21:45.328Z,67.73
2019-03-27T23:24:13.778Z,68.28
2019-03-27T23:26:42.210Z,69.62
2019-03-27T23:29:10.641Z,68.10
2019-03-27T23:31:39.170Z,68.31
2019-03-27T23:34:07.597Z,68.11
2019-03-27T23:36:36.679Z,68.48
2019-03-27T23:39:07.437Z,68.36
2019-03-27T23:41:35.933Z,68.54
2019-03-27T23:44:04.510Z,69.73
2019-03-27T23:46:32.972Z,69.37
2019-03-27T23:49:01.489Z,70.27
2019-03-27T23:51:29.907Z,70.78
2019-03-27T23:53:58.372Z,70.86
2019-03-27T23:56:28.779Z,70.13
2019-03-27T23:58:57.210Z,69.40
